createdAt,value
2022-11-29T00:02:09.392Z,87.38
2022-11-29T00:04:39.151Z,87.81
2022-11-29T00:07:07.922Z,87.91
2022-11-29T00:09:36.717Z,88.02
2022-11-29T00:12:14.660Z,88.07
2022-11-29T00:14:44.036Z,87.95
2022-11-29T00:17:14.448Z,87.84
2022-11-29T00:19:45.198Z,87.70
2022-11-29T00:22:13.950Z,87.94
2022-11-29T00:24:43.256Z,87.89
2022-11-29T00:27:12.242Z,87.77
2022-11-29T00:29:41.054Z,87.85
2022-11-29T00:32:09.788Z,88.31
2022-11-29T00:34:40.191Z,88.20
2022-11-29T00:37:08.917Z,88.07
2022-11-29T00:39:37.733Z,88.29
2022-11-29T00:42:06.604Z,88.40
2022-11-29T00:44:35.307Z,88.22
2022-11-29T00:47:04.047Z,88.14
2022-11-29T00:49:32.871Z,88.09
2022-11-29T00:52:03.037Z,88.15
2022-11-29T00:54:31.743Z,88.29
2022-11-29T00:57:00.692Z,88.11
2022-11-29T00:59:30.378Z,88.23
2022-11-29T01:01:59.209Z,88.28
2022-11-29T01:04:27.982Z,88.24
2022-11-29T01:06:56.820Z,88.31
2022-11-29T01:09:27.063Z,88.55
2022-11-29T01:11:55.792Z,88.82
2022-11-29T01:14:24.605Z,88.76
2022-11-29T01:16:53.406Z,88.92
2022-11-29T01:19:22.177Z,89.00
2022-11-29T01:21:50.905Z,88.97
2022-11-29T01:24:19.650Z,89.26
2022-11-29T01:26:49.819Z,89.33
2022-11-29T01:29:18.488Z,89.30
2022-11-29T01:31:47.206Z,89.39
2022-11-29T01:34:15.971Z,89.46
2022-11-29T01:36:44.703Z,89.55
2022-11-29T01:39:13.559Z,89.56
2022-11-29T01:41:42.321Z,89.57
2022-11-29T01:45:06.260Z,89.66
2022-11-29T01:47:44.707Z,89.69
2022-11-29T01:50:13.995Z,89.61
2022-11-29T01:52:44.105Z,89.85
2022-11-29T01:55:15.032Z,90.04
2022-11-29T01:57:45.469Z,90.31
2022-11-29T02:00:19.492Z,89.94
2022-11-29T02:02:56.816Z,89.99
2022-11-29T02:05:27.620Z,90.29
2022-11-29T02:08:00.388Z,90.28
2022-11-29T02:10:48.701Z,90.10
2022-11-29T02:13:29.299Z,90.50
2022-11-29T02:16:14.288Z,90.72
2022-11-29T02:19:01.178Z,90.62
2022-11-29T02:21:46.123Z,91.14
2022-11-29T02:24:53.615Z,91.37
2022-11-29T02:28:25.286Z,90.75
2022-11-29T02:31:30.280Z,91.12
2022-11-29T02:34:32.631Z,91.49
2022-11-29T02:37:34.204Z,91.62
2022-11-29T02:40:30.009Z,91.50
2022-11-29T02:43:46.813Z,91.46
2022-11-29T02:46:48.424Z,91.32
2022-11-29T02:49:42.872Z,91.70
2022-11-29T02:52:21.990Z,91.56
2022-11-29T02:55:02.698Z,91.59
2022-11-29T02:57:43.352Z,91.61
2022-11-29T03:00:20.167Z,91.85
2022-11-29T03:02:59.571Z,92.52
2022-11-29T03:05:44.798Z,92.30
2022-11-29T03:08:26.852Z,92.60
2022-11-29T03:11:08.594Z,92.77
2022-11-29T03:13:54.471Z,92.40
2022-11-29T03:16:43.080Z,92.64
2022-11-29T03:19:37.076Z,92.51
2022-11-29T03:22:16.376Z,92.48
2022-11-29T03:24:57.559Z,92.41
2022-11-29T03:27:37.645Z,92.46
2022-11-29T03:30:10.733Z,92.24
2022-11-29T03:32:52.190Z,92.20
2022-11-29T03:35:31.076Z,92.37
2022-11-29T03:38:21.288Z,92.45
2022-11-29T03:41:01.145Z,92.14
2022-11-29T03:43:42.911Z,92.78
2022-11-29T03:46:17.473Z,92.77
2022-11-29T03:48:55.458Z,92.49
2022-11-29T03:51:38.974Z,92.58
2022-11-29T03:54:17.304Z,92.74
2022-11-29T03:56:47.032Z,92.58
2022-11-29T03:59:36.065Z,92.70
2022-11-29T04:02:49.259Z,92.56
2022-11-29T04:05:38.554Z,92.43
2022-11-29T04:09:06.469Z,92.64
2022-11-29T04:12:35.283Z,92.40
2022-11-29T04:15:55.817Z,92.78
2022-11-29T04:19:28.932Z,92.66
2022-11-29T04:22:25.948Z,92.96
2022-11-29T04:25:50.512Z,92.97
2022-11-29T04:29:09.987Z,92.92
2022-11-29T04:32:08.674Z,93.26
2022-11-29T04:35:09.475Z,92.93
2022-11-29T04:38:19.707Z,92.70
2022-11-29T04:41:33.208Z,92.73
2022-11-29T04:44:23.820Z,92.87
2022-11-29T04:47:25.634Z,93.37
2022-11-29T04:50:13.181Z,93.72
2022-11-29T04:53:16.458Z,93.60
2022-11-29T04:55:58.064Z,93.51
2022-11-29T04:58:37.328Z,92.92
2022-11-29T05:01:31.317Z,93.53
2022-11-29T05:04:13.845Z,93.74
2022-11-29T05:06:59.754Z,93.41
2022-11-29T05:09:45.903Z,93.84
2022-11-29T05:12:30.208Z,93.69
2022-11-29T05:15:33.877Z,93.80
2022-11-29T05:18:19.556Z,93.20
2022-11-29T05:21:01.538Z,93.42
2022-11-29T05:23:49.766Z,93.30
2022-11-29T05:26:29.000Z,93.05
2022-11-29T05:29:07.405Z,92.81
2022-11-29T05:32:14.925Z,93.05
2022-11-29T05:35:28.959Z,92.62
2022-11-29T05:38:15.498Z,92.77
2022-11-29T05:41:02.423Z,92.65
2022-11-29T05:43:55.351Z,93.07
2022-11-29T05:46:34.006Z,92.90
2022-11-29T05:49:22.350Z,92.53
2022-11-29T05:52:05.565Z,92.76
2022-11-29T05:54:46.485Z,92.59
2022-11-29T05:57:35.095Z,92.89
2022-11-29T06:00:09.536Z,92.76
2022-11-29T06:02:55.379Z,92.89
2022-11-29T06:05:36.756Z,92.71
2022-11-29T06:08:14.560Z,92.59
2022-11-29T06:11:05.881Z,92.71
2022-11-29T06:13:52.093Z,92.47
2022-11-29T06:17:14.320Z,92.56
2022-11-29T06:20:16.948Z,92.93
2022-11-29T06:23:14.432Z,92.78
2022-11-29T06:26:04.658Z,93.64
2022-11-29T06:28:52.013Z,93.07
2022-11-29T06:31:28.952Z,93.17
2022-11-29T06:34:07.969Z,93.11
2022-11-29T06:36:44.219Z,93.38
2022-11-29T06:39:14.004Z,93.10
2022-11-29T06:41:44.466Z,93.16
2022-11-29T06:44:14.152Z,93.08
2022-11-29T06:46:49.010Z,93.04
2022-11-29T06:49:32.563Z,93.38
2022-11-29T06:52:20.550Z,93.36
2022-11-29T06:55:04.678Z,93.06
2022-11-29T06:57:51.893Z,93.43
2022-11-29T07:00:27.097Z,93.30
2022-11-29T07:03:37.819Z,93.26
2022-11-29T07:06:22.431Z,93.29
2022-11-29T07:08:58.160Z,93.15
2022-11-29T07:11:27.975Z,93.28
2022-11-29T07:13:59.090Z,93.56
2022-11-29T07:16:35.323Z,93.94
2022-11-29T07:19:19.035Z,93.45
2022-11-29T07:22:02.735Z,93.67
2022-11-29T07:24:56.503Z,93.95
2022-11-29T07:27:35.435Z,93.71
2022-11-29T07:30:14.496Z,94.19
2022-11-29T07:33:00.444Z,94.08
2022-11-29T07:35:47.091Z,93.84
2022-11-29T07:38:30.271Z,94.10
2022-11-29T07:41:11.606Z,94.12
2022-11-29T07:43:53.256Z,93.97
2022-11-29T07:46:24.059Z,93.99
2022-11-29T07:48:53.327Z,93.79
2022-11-29T07:51:22.249Z,93.81
2022-11-29T07:53:51.109Z,93.83
2022-11-29T07:56:19.839Z,93.75
2022-11-29T07:58:48.881Z,93.78
2022-11-29T08:01:17.842Z,94.04
2022-11-29T08:03:48.042Z,93.94
2022-11-29T08:06:16.973Z,94.01
2022-11-29T08:08:45.708Z,94.20
2022-11-29T08:11:15.993Z,94.08
2022-11-29T08:13:44.849Z,93.88
2022-11-29T08:16:18.676Z,93.85
2022-11-29T08:18:49.433Z,93.94
2022-11-29T08:21:18.459Z,94.18
2022-11-29T08:23:48.110Z,94.37
2022-11-29T08:26:18.193Z,94.11
2022-11-29T08:28:47.444Z,94.14
2022-11-29T08:31:16.212Z,94.03
2022-11-29T08:33:45.616Z,94.25
2022-11-29T08:36:20.627Z,94.35
2022-11-29T08:38:59.282Z,94.49
2022-11-29T08:41:34.414Z,94.36
2022-11-29T08:44:03.366Z,94.18
2022-11-29T08:46:46.615Z,93.46
2022-11-29T08:49:15.638Z,93.45
2022-11-29T08:51:45.848Z,93.43
2022-11-29T08:54:14.014Z,93.92
2022-11-29T08:57:31.005Z,93.97
2022-11-29T08:59:31.586Z,93.92
2022-11-29T09:02:00.729Z,93.66
2022-11-29T09:04:29.680Z,93.63
2022-11-29T09:06:59.877Z,93.63
2022-11-29T09:09:30.022Z,93.48
2022-11-29T09:11:59.006Z,93.14
2022-11-29T09:14:28.023Z,92.97
2022-11-29T09:16:57.283Z,92.93
2022-11-29T09:19:26.711Z,92.83
2022-11-29T09:21:56.669Z,92.57
2022-11-29T09:24:27.037Z,92.47
2022-11-29T09:26:56.270Z,92.30
2022-11-29T09:29:25.275Z,91.88
2022-11-29T09:31:54.159Z,91.69
2022-11-29T09:34:22.958Z,91.27
2022-11-29T09:36:51.868Z,91.50
2022-11-29T09:39:20.887Z,91.83
2022-11-29T09:42:23.740Z,91.64
2022-11-29T09:45:05.129Z,91.33
2022-11-29T09:48:25.953Z,91.09
2022-11-29T09:51:14.097Z,90.74
2022-11-29T09:54:08.145Z,90.55
2022-11-29T09:56:45.115Z,90.64
2022-11-29T09:59:25.125Z,90.76
2022-11-29T10:02:01.192Z,90.77
2022-11-29T10:04:40.221Z,90.93
2022-11-29T10:07:19.603Z,89.91
2022-11-29T10:09:55.088Z,89.65
2022-11-29T10:12:36.165Z,89.76
2022-11-29T10:15:17.024Z,89.82
2022-11-29T10:17:54.604Z,89.83
2022-11-29T10:20:27.059Z,89.43
2022-11-29T10:23:04.101Z,89.76
2022-11-29T10:25:43.388Z,89.47
2022-11-29T10:28:18.543Z,89.05
2022-11-29T10:30:49.872Z,88.40
2022-11-29T10:33:23.341Z,87.82
2022-11-29T10:36:00.950Z,88.70
2022-11-29T10:38:31.415Z,88.63
2022-11-29T10:41:08.818Z,88.00
2022-11-29T10:43:38.966Z,87.40
2022-11-29T10:46:19.395Z,87.03
2022-11-29T10:48:48.241Z,86.62
2022-11-29T10:51:19.261Z,86.48
2022-11-29T10:53:48.430Z,85.31
2022-11-29T10:56:27.515Z,84.82
2022-11-29T10:59:03.195Z,84.45
2022-11-29T11:01:38.345Z,83.97
2022-11-29T11:04:10.932Z,84.27
2022-11-29T11:06:51.503Z,84.10
2022-11-29T11:09:27.889Z,83.63
2022-11-29T11:12:00.283Z,83.39
2022-11-29T11:14:33.121Z,83.48
2022-11-29T11:17:26.123Z,83.13
2022-11-29T11:20:01.047Z,82.48
2022-11-29T11:22:32.692Z,81.30
2022-11-29T11:25:05.832Z,82.17
2022-11-29T11:27:39.859Z,81.46
2022-11-29T11:30:24.085Z,82.44
2022-11-29T11:33:19.475Z,81.69
2022-11-29T11:36:08.206Z,81.67
2022-11-29T11:38:40.059Z,80.85
2022-11-29T11:41:44.605Z,81.63
2022-11-29T11:44:46.719Z,81.97
2022-11-29T11:47:20.583Z,81.40
2022-11-29T11:49:57.303Z,79.98
2022-11-29T11:52:34.758Z,81.69
2022-11-29T11:55:28.762Z,81.85
2022-11-29T11:58:10.169Z,80.99
2022-11-29T12:03:46.750Z,80.38
2022-11-29T12:06:30.033Z,80.81
2022-11-29T12:09:11.060Z,80.50
2022-11-29T12:11:48.245Z,80.84
2022-11-29T12:14:30.256Z,80.54
2022-11-29T12:17:14.280Z,80.96
2022-11-29T12:20:15.423Z,80.85
2022-11-29T12:23:06.524Z,80.25
2022-11-29T12:25:45.967Z,79.55
2022-11-29T12:28:20.865Z,79.67
2022-11-29T12:31:04.130Z,79.57
2022-11-29T12:33:50.946Z,79.42
2022-11-29T12:36:34.876Z,78.38
2022-11-29T12:39:45.303Z,79.77
2022-11-29T12:42:27.764Z,79.43
2022-11-29T12:45:21.788Z,79.37
2022-11-29T12:48:04.920Z,79.18
2022-11-29T12:50:47.545Z,78.88
2022-11-29T12:53:37.760Z,78.35
2022-11-29T12:56:21.270Z,78.81
2022-11-29T12:59:11.822Z,78.63
2022-11-29T13:02:04.204Z,78.40
2022-11-29T13:04:45.471Z,78.75
2022-11-29T13:07:28.020Z,78.94
2022-11-29T13:10:18.628Z,78.70
2022-11-29T13:12:54.744Z,78.86
2022-11-29T13:15:43.109Z,78.69
2022-11-29T13:18:26.693Z,78.74
2022-11-29T13:21:05.792Z,78.04
2022-11-29T13:26:34.315Z,78.45
2022-11-29T13:29:07.000Z,77.79
2022-11-29T13:31:36.670Z,78.03
2022-11-29T13:34:17.462Z,77.47
2022-11-29T13:37:06.205Z,77.97
2022-11-29T13:39:54.230Z,78.10
2022-11-29T13:42:34.865Z,77.96
2022-11-29T13:45:19.574Z,77.72
2022-11-29T13:47:55.616Z,77.76
2022-11-29T13:50:41.295Z,78.09
2022-11-29T13:53:17.837Z,77.54
2022-11-29T13:56:00.186Z,77.69
2022-11-29T13:58:38.380Z,77.79
2022-11-29T14:01:11.687Z,78.05
2022-11-29T14:03:42.828Z,77.84
2022-11-29T14:06:21.221Z,78.29
2022-11-29T14:09:27.816Z,79.15
2022-11-29T14:12:19.555Z,79.15
2022-11-29T14:14:56.684Z,79.77
2022-11-29T14:17:50.836Z,80.25
2022-11-29T14:20:58.403Z,79.06
2022-11-29T14:23:42.539Z,79.36
2022-11-29T14:26:32.869Z,78.29
2022-11-29T14:29:02.074Z,78.08
2022-11-29T14:31:57.345Z,77.85
2022-11-29T14:34:44.019Z,77.98
2022-11-29T14:37:54.824Z,78.88
2022-11-29T14:40:35.677Z,78.54
2022-11-29T14:43:17.420Z,78.65
2022-11-29T14:45:46.366Z,79.10
2022-11-29T14:48:29.154Z,78.81
2022-11-29T14:51:12.788Z,78.60
2022-11-29T14:53:49.144Z,78.78
2022-11-29T14:56:46.686Z,78.61
2022-11-29T14:59:50.568Z,78.27
2022-11-29T15:02:33.564Z,78.55
2022-11-29T15:05:18.685Z,79.00
2022-11-29T15:07:59.486Z,79.57
2022-11-29T15:10:36.744Z,79.41
2022-11-29T15:13:07.127Z,78.26
2022-11-29T15:16:29.632Z,78.91
2022-11-29T15:19:28.039Z,79.00
2022-11-29T15:22:09.961Z,80.10
2022-11-29T15:24:55.665Z,79.73
2022-11-29T15:27:25.948Z,79.74
2022-11-29T15:29:58.953Z,80.42
2022-11-29T15:32:32.668Z,81.29
2022-11-29T15:35:02.455Z,81.15
2022-11-29T15:37:44.719Z,80.98
2022-11-29T15:40:18.769Z,81.24
2022-11-29T15:42:53.730Z,81.82
2022-11-29T15:45:32.579Z,81.80
2022-11-29T15:48:19.332Z,81.96
2022-11-29T15:50:56.661Z,81.88
2022-11-29T15:53:32.657Z,81.16
2022-11-29T15:56:19.194Z,80.73
2022-11-29T15:58:54.900Z,80.58
2022-11-29T16:01:24.005Z,80.92
2022-11-29T16:03:58.525Z,80.60
2022-11-29T16:06:35.245Z,79.45
2022-11-29T16:09:07.660Z,79.83
2022-11-29T16:11:40.628Z,80.03
2022-11-29T16:14:23.618Z,79.52
2022-11-29T16:17:01.030Z,80.28
2022-11-29T16:19:48.120Z,80.11
2022-11-29T16:22:25.313Z,80.10
2022-11-29T16:25:07.925Z,79.27
2022-11-29T16:27:39.701Z,79.38
2022-11-29T16:33:35.832Z,79.21
2022-11-29T16:36:10.271Z,79.37
2022-11-29T16:38:46.486Z,79.19
2022-11-29T16:41:33.711Z,79.21
2022-11-29T16:45:10.921Z,79.12
2022-11-29T16:47:58.093Z,79.67
2022-11-29T16:50:29.078Z,79.16
2022-11-29T16:53:21.812Z,78.83
2022-11-29T16:55:52.833Z,78.45
2022-11-29T16:58:22.244Z,78.50
2022-11-29T17:00:52.643Z,78.28
2022-11-29T17:03:22.511Z,78.45
2022-11-29T17:05:52.124Z,78.30
2022-11-29T17:08:20.889Z,78.61
2022-11-29T17:10:51.255Z,78.37
2022-11-29T17:13:20.191Z,78.59
2022-11-29T17:15:53.278Z,78.64
2022-11-29T17:18:28.152Z,78.74
2022-11-29T17:20:58.785Z,78.36
2022-11-29T17:23:27.993Z,78.84
2022-11-29T17:26:06.128Z,79.13
2022-11-29T17:28:35.338Z,78.64
2022-11-29T17:31:10.886Z,79.18
2022-11-29T17:33:53.571Z,79.21
2022-11-29T17:36:23.302Z,78.88
2022-11-29T17:38:53.665Z,78.69
2022-11-29T17:41:26.264Z,78.35
2022-11-29T17:43:57.935Z,78.98
2022-11-29T17:46:29.798Z,79.66
2022-11-29T17:49:01.970Z,79.29
2022-11-29T17:54:21.064Z,79.23
2022-11-29T17:56:54.105Z,79.51
2022-11-29T17:59:23.344Z,80.22
2022-11-29T18:01:52.406Z,79.34
2022-11-29T18:04:21.451Z,79.50
2022-11-29T18:06:50.961Z,79.56
2022-11-29T18:10:43.487Z,79.35
2022-11-29T18:13:14.364Z,79.26
2022-11-29T18:17:02.812Z,78.36
2022-11-29T18:20:01.778Z,79.28
2022-11-29T18:22:30.872Z,79.06
2022-11-29T18:25:36.483Z,79.21
2022-11-29T18:27:55.623Z,79.38
2022-11-29T18:30:26.187Z,79.99
2022-11-29T18:32:55.504Z,80.06
2022-11-29T18:35:24.489Z,81.09
2022-11-29T18:40:45.845Z,80.97
2022-11-29T18:43:17.331Z,81.17
2022-11-29T18:45:47.712Z,81.08
2022-11-29T18:48:16.523Z,81.22
2022-11-29T18:50:45.547Z,80.35
2022-11-29T18:53:15.426Z,79.94
2022-11-29T18:55:44.671Z,80.28
2022-11-29T18:58:13.820Z,80.38
2022-11-29T19:00:42.572Z,80.79
2022-11-29T19:03:13.341Z,80.38
2022-11-29T19:05:51.986Z,79.73
2022-11-29T19:08:21.696Z,80.24
2022-11-29T19:10:52.401Z,80.32
2022-11-29T19:13:22.546Z,80.55
2022-11-29T19:15:56.702Z,80.44
2022-11-29T19:18:30.893Z,81.04
2022-11-29T19:21:10.842Z,80.96
2022-11-29T19:23:41.473Z,80.37
2022-11-29T19:26:16.637Z,80.60
2022-11-29T19:28:47.603Z,81.06
2022-11-29T19:31:21.027Z,80.79
2022-11-29T19:33:52.791Z,80.85
2022-11-29T19:36:24.494Z,80.86
2022-11-29T19:38:54.568Z,81.18
2022-11-29T19:41:27.666Z,81.23
2022-11-29T19:43:59.294Z,81.34
2022-11-29T19:46:32.254Z,81.42
2022-11-29T19:49:04.527Z,81.23
2022-11-29T19:51:35.300Z,81.07
2022-11-29T19:54:06.950Z,81.86
2022-11-29T19:56:35.897Z,82.19
2022-11-29T19:59:05.221Z,82.27
2022-11-29T20:01:40.732Z,82.10
2022-11-29T20:04:13.923Z,82.29
2022-11-29T20:06:44.419Z,82.35
2022-11-29T20:09:14.699Z,82.60
2022-11-29T20:11:44.095Z,82.88
2022-11-29T20:14:14.728Z,83.18
2022-11-29T20:16:43.992Z,83.13
2022-11-29T20:19:17.461Z,83.08
2022-11-29T20:21:48.897Z,83.02
2022-11-29T20:24:19.587Z,82.30
2022-11-29T20:26:50.626Z,81.52
2022-11-29T20:29:22.034Z,80.71
2022-11-29T20:31:51.493Z,80.73
2022-11-29T20:34:22.640Z,80.89
2022-11-29T20:37:24.185Z,80.95
2022-11-29T20:40:01.200Z,81.45
2022-11-29T20:43:08.034Z,81.91
2022-11-29T20:45:38.924Z,82.12
2022-11-29T20:48:17.936Z,82.28
2022-11-29T20:50:57.974Z,82.56
2022-11-29T20:53:36.666Z,82.89
2022-11-29T20:56:09.769Z,82.46
2022-11-29T20:58:41.299Z,82.99
2022-11-29T21:01:10.898Z,83.00
2022-11-29T21:03:40.133Z,83.23
2022-11-29T21:06:10.544Z,82.68
2022-11-29T21:08:39.599Z,82.94
2022-11-29T21:11:11.241Z,82.94
2022-11-29T21:13:41.240Z,82.98
2022-11-29T21:16:13.627Z,82.84
2022-11-29T21:18:43.756Z,82.86
2022-11-29T21:21:26.614Z,82.86
2022-11-29T21:24:06.890Z,82.88
2022-11-29T21:26:42.214Z,82.98
2022-11-29T21:29:18.983Z,82.97
2022-11-29T21:31:51.638Z,82.89
2022-11-29T21:34:20.806Z,83.02
2022-11-29T21:36:58.181Z,82.77
2022-11-29T21:39:34.980Z,82.37
2022-11-29T21:42:04.083Z,82.34
2022-11-29T21:44:33.100Z,82.41
2022-11-29T21:47:02.055Z,82.56
2022-11-29T21:49:30.954Z,82.76
2022-11-29T21:52:01.360Z,83.13
2022-11-29T21:54:30.909Z,82.85
2022-11-29T21:57:00.460Z,82.94
2022-11-29T21:59:29.470Z,82.94
2022-11-29T22:01:58.876Z,83.34
2022-11-29T22:04:28.023Z,83.44
2022-11-29T22:06:56.926Z,82.81
2022-11-29T22:09:26.981Z,80.31
2022-11-29T22:11:55.751Z,81.73
2022-11-29T22:14:24.447Z,82.03
2022-11-29T22:16:55.736Z,82.34
2022-11-29T22:19:26.488Z,81.21
2022-11-29T22:21:58.925Z,80.95
2022-11-29T22:24:31.204Z,81.85
2022-11-29T22:27:00.411Z,81.32
2022-11-29T22:29:29.835Z,81.55
2022-11-29T22:31:59.407Z,81.80
2022-11-29T22:34:28.995Z,82.15
2022-11-29T22:36:57.792Z,82.45
2022-11-29T22:39:26.609Z,82.43
2022-11-29T22:41:56.739Z,82.52
2022-11-29T22:44:25.843Z,82.48
2022-11-29T22:46:54.604Z,82.37
2022-11-29T22:49:23.421Z,82.48
2022-11-29T22:51:52.396Z,82.65
2022-11-29T22:54:21.097Z,82.25
2022-11-29T22:56:49.981Z,82.45
2022-11-29T22:59:20.143Z,82.54
2022-11-29T23:01:48.978Z,82.58
2022-11-29T23:04:17.720Z,82.67
2022-11-29T23:06:47.732Z,82.80
2022-11-29T23:09:21.290Z,83.01
2022-11-29T23:11:53.150Z,83.23
2022-11-29T23:14:25.861Z,83.17
2022-11-29T23:16:54.682Z,83.03
2022-11-29T23:19:23.597Z,82.92
2022-11-29T23:21:52.332Z,83.12
2022-11-29T23:24:22.160Z,82.89
2022-11-29T23:26:50.923Z,82.50
2022-11-29T23:29:22.528Z,82.38
2022-11-29T23:31:51.473Z,81.89
2022-11-29T23:34:20.692Z,81.89
2022-11-29T23:36:52.850Z,82.14
2022-11-29T23:39:22.240Z,82.23
2022-11-29T23:41:50.960Z,82.10
2022-11-29T23:44:19.733Z,82.05
2022-11-29T23:46:49.859Z,82.13
2022-11-29T23:49:18.627Z,82.19
2022-11-29T23:51:47.387Z,82.24
2022-11-29T23:54:16.080Z,81.45
2022-11-29T23:56:44.748Z,81.72
2022-11-29T23:59:13.551Z,81.73
